createdAt,value
2022-11-07T00:00:10.877Z,100187.72
2022-11-07T00:02:37.321Z,100186.03
2022-11-07T00:05:03.897Z,100189.53
2022-11-07T00:07:30.245Z,100189.53
2022-11-07T00:09:56.680Z,100197.31
2022-11-07T00:12:22.988Z,100196.41
2022-11-07T00:14:49.429Z,100199.00
2022-11-07T00:17:15.725Z,100196.41
2022-11-07T00:19:42.066Z,100198.97
2022-11-07T00:22:08.943Z,100198.16
2022-11-07T00:24:35.226Z,100196.41
2022-11-07T00:27:01.741Z,100195.50
2022-11-07T00:29:28.113Z,100202.41
2022-11-07T00:31:54.539Z,100197.28
2022-11-07T00:34:20.855Z,100195.47
2022-11-07T00:36:47.140Z,100201.50
2022-11-07T00:39:13.471Z,100194.56
2022-11-07T00:41:39.828Z,100187.66
2022-11-07T00:44:06.190Z,100197.09
2022-11-07T00:46:32.499Z,100203.06
2022-11-07T00:48:58.867Z,100201.31
2022-11-07T00:51:27.040Z,100201.22
2022-11-07T00:53:53.664Z,100208.09
2022-11-07T00:56:22.824Z,100215.03
2022-11-07T00:58:49.144Z,100211.44
2022-11-07T01:01:19.959Z,100216.66
2022-11-07T01:04:05.773Z,100216.56
2022-11-07T01:06:34.225Z,100213.19
2022-11-07T01:09:00.819Z,100212.28
2022-11-07T01:11:29.259Z,100211.38
2022-11-07T01:14:00.251Z,100215.53
2022-11-07T01:16:27.811Z,100213.06
2022-11-07T01:18:54.535Z,100219.13
2022-11-07T01:21:21.416Z,100223.34
2022-11-07T01:23:48.256Z,100224.97
2022-11-07T01:26:15.425Z,100209.44
2022-11-07T01:28:41.957Z,100217.16
2022-11-07T01:31:11.732Z,100221.44
2022-11-07T01:33:38.710Z,100224.06
2022-11-07T01:36:11.335Z,100226.59
2022-11-07T01:38:39.445Z,100223.06
2022-11-07T01:41:22.524Z,100214.31
2022-11-07T01:43:56.444Z,100221.16
2022-11-07T01:46:43.863Z,100212.41
2022-11-07T01:49:25.847Z,100206.31
2022-11-07T01:52:07.137Z,100211.38
2022-11-07T01:54:38.953Z,100206.97
2022-11-07T01:57:11.048Z,100208.59
2022-11-07T01:59:40.017Z,100209.38
2022-11-07T02:02:07.287Z,100211.09
2022-11-07T02:04:33.682Z,100210.19
2022-11-07T02:07:10.197Z,100213.72
2022-11-07T02:09:36.709Z,100210.19
2022-11-07T02:12:03.236Z,100208.31
2022-11-07T02:14:30.061Z,100207.53
2022-11-07T02:16:56.882Z,100207.38
2022-11-07T02:19:47.235Z,100216.13
2022-11-07T02:22:28.395Z,100204.91
2022-11-07T02:24:58.458Z,100216.19
2022-11-07T02:27:28.800Z,100216.19
2022-11-07T02:30:03.100Z,100215.25
2022-11-07T02:32:29.782Z,100215.19
2022-11-07T02:35:00.440Z,100213.22
2022-11-07T02:37:30.975Z,100213.22
2022-11-07T02:40:00.062Z,100205.47
2022-11-07T02:42:43.099Z,100210.56
2022-11-07T02:45:17.297Z,100209.78
2022-11-07T02:47:43.610Z,100205.28
2022-11-07T02:50:11.841Z,100217.63
2022-11-07T02:52:38.462Z,100213.16
2022-11-07T02:55:06.020Z,100210.50
2022-11-07T02:57:32.871Z,100214.75
2022-11-07T02:59:59.333Z,100200.81
2022-11-07T03:02:26.200Z,100213.84
2022-11-07T03:04:52.933Z,100216.59
2022-11-07T03:07:19.576Z,100221.78
2022-11-07T03:09:45.904Z,100227.63
2022-11-07T03:12:12.250Z,100223.19
2022-11-07T03:14:38.580Z,100221.38
2022-11-07T03:17:04.915Z,100214.31
2022-11-07T03:19:31.231Z,100219.44
2022-11-07T03:21:57.506Z,100208.09
2022-11-07T03:24:23.810Z,100205.53
2022-11-07T03:26:50.152Z,100217.53
2022-11-07T03:29:16.456Z,100222.81
2022-11-07T03:31:42.747Z,100224.34
2022-11-07T03:34:09.022Z,100225.13
2022-11-07T03:36:35.336Z,100222.59
2022-11-07T03:39:01.650Z,100219.06
2022-11-07T03:41:28.032Z,100223.47
2022-11-07T03:43:54.367Z,100226.03
2022-11-07T03:46:20.660Z,100221.56
2022-11-07T03:48:46.947Z,100226.72
2022-11-07T03:51:13.325Z,100224.22
2022-11-07T03:53:39.615Z,100222.50
2022-11-07T03:56:08.591Z,100218.22
2022-11-07T03:58:35.742Z,100227.75
2022-11-07T04:01:03.034Z,100219.00
2022-11-07T04:03:29.825Z,100226.72
2022-11-07T04:05:56.486Z,100218.75
2022-11-07T04:08:24.284Z,100227.41
2022-11-07T04:10:50.649Z,100225.72
2022-11-07T04:13:35.631Z,100228.09
2022-11-07T04:16:20.389Z,100229.00
2022-11-07T04:18:46.661Z,100234.13
2022-11-07T04:21:12.992Z,100221.13
2022-11-07T04:23:39.303Z,100228.09
2022-11-07T04:26:24.469Z,100220.53
2022-11-07T04:28:50.761Z,100219.75
2022-11-07T04:31:17.035Z,100224.22
2022-11-07T04:33:43.320Z,100222.38
2022-11-07T04:36:09.662Z,100228.31
2022-11-07T04:38:35.963Z,100228.06
2022-11-07T04:41:04.127Z,100221.88
2022-11-07T04:43:30.500Z,100221.03
2022-11-07T04:45:57.139Z,100227.75
2022-11-07T04:48:23.445Z,100223.47
2022-11-07T04:50:49.888Z,100225.97
2022-11-07T04:53:18.037Z,100232.00
2022-11-07T04:55:44.483Z,100231.06
2022-11-07T04:58:10.859Z,100224.91
2022-11-07T05:00:37.205Z,100227.59
2022-11-07T05:03:04.183Z,100225.81
2022-11-07T05:05:30.546Z,100227.44
2022-11-07T05:07:56.846Z,100220.53
2022-11-07T05:10:26.614Z,100233.72
2022-11-07T05:12:53.962Z,100222.41
2022-11-07T05:15:20.691Z,100230.38
2022-11-07T05:17:47.137Z,100229.44
2022-11-07T05:20:28.678Z,100245.06
2022-11-07T05:23:14.669Z,100242.38
2022-11-07T05:25:46.686Z,100242.34
2022-11-07T05:28:16.199Z,100247.53
2022-11-07T05:30:44.219Z,100246.53
2022-11-07T05:33:12.789Z,100243.97
2022-11-07T05:35:39.532Z,100247.38
2022-11-07T05:38:05.941Z,100250.06
2022-11-07T05:40:34.745Z,100248.22
2022-11-07T05:43:02.118Z,100251.66
2022-11-07T05:45:30.353Z,100244.75
2022-11-07T05:47:58.937Z,100256.03
2022-11-07T05:50:25.548Z,100258.63
2022-11-07T05:52:51.905Z,100256.00
2022-11-07T05:55:18.593Z,100250.88
2022-11-07T05:57:44.890Z,100258.72
2022-11-07T06:00:12.093Z,100253.75
2022-11-07T06:02:38.708Z,100252.03
2022-11-07T06:05:05.539Z,100256.38
2022-11-07T06:07:36.451Z,100260.00
2022-11-07T06:10:04.764Z,100268.56
2022-11-07T06:12:31.066Z,100262.72
2022-11-07T06:14:57.434Z,100267.09
2022-11-07T06:17:23.835Z,100261.19
2022-11-07T06:19:50.156Z,100269.91
2022-11-07T06:22:16.606Z,100276.81
2022-11-07T06:24:42.949Z,100271.75
2022-11-07T06:27:09.268Z,100272.69
2022-11-07T06:29:35.567Z,100274.44
2022-11-07T06:32:01.879Z,100280.56
2022-11-07T06:34:28.199Z,100282.44
2022-11-07T06:37:02.459Z,100279.75
2022-11-07T06:39:29.168Z,100288.31
2022-11-07T06:41:55.462Z,100291.84
2022-11-07T06:44:21.743Z,100294.44
2022-11-07T06:46:48.045Z,100298.78
2022-11-07T06:49:15.187Z,100309.28
2022-11-07T06:51:46.896Z,100306.75
2022-11-07T06:54:14.394Z,100316.19
2022-11-07T06:56:40.668Z,100324.97
2022-11-07T06:59:07.266Z,100319.63
2022-11-07T07:01:33.803Z,100321.31
2022-11-07T07:04:00.831Z,100323.88
2022-11-07T07:06:27.231Z,100320.41
2022-11-07T07:08:54.487Z,100336.75
2022-11-07T07:11:20.836Z,100337.53
2022-11-07T07:13:47.185Z,100344.47
2022-11-07T07:16:13.650Z,100339.97
2022-11-07T07:18:39.993Z,100345.25
2022-11-07T07:21:11.517Z,100338.22
2022-11-07T07:23:38.902Z,100351.38
2022-11-07T07:26:07.448Z,100350.41
2022-11-07T07:28:33.776Z,100340.66
2022-11-07T07:31:07.392Z,100349.25
2022-11-07T07:33:33.746Z,100353.47
2022-11-07T07:36:00.027Z,100347.22
2022-11-07T07:38:26.321Z,100349.66
2022-11-07T07:40:52.656Z,100350.41
2022-11-07T07:43:19.239Z,100352.00
2022-11-07T07:45:45.778Z,100351.09
2022-11-07T07:48:12.134Z,100355.31
2022-11-07T07:50:38.439Z,100355.16
2022-11-07T07:53:08.883Z,100354.31
2022-11-07T07:55:35.863Z,100351.63
2022-11-07T07:58:02.175Z,100340.34
2022-11-07T08:00:28.518Z,100344.69
2022-11-07T08:03:07.170Z,100357.69
2022-11-07T08:05:33.616Z,100342.78
2022-11-07T08:07:59.946Z,100359.97
2022-11-07T08:10:43.165Z,100357.28
2022-11-07T08:13:09.859Z,100356.88
2022-11-07T08:15:36.173Z,100350.88
2022-11-07T08:18:04.133Z,100356.16
2022-11-07T08:20:30.675Z,100367.59
2022-11-07T08:23:14.834Z,100370.16
2022-11-07T08:25:55.841Z,100363.31
2022-11-07T08:28:25.270Z,100373.69
2022-11-07T08:31:00.393Z,100360.47
2022-11-07T08:33:27.576Z,100366.44
2022-11-07T08:35:55.786Z,100374.25
2022-11-07T08:38:22.781Z,100369.81
2022-11-07T08:40:50.454Z,100380.19
2022-11-07T08:43:18.161Z,100383.69
2022-11-07T08:45:46.375Z,100383.50
2022-11-07T08:48:13.189Z,100378.19
2022-11-07T08:50:39.618Z,100386.81
2022-11-07T08:53:06.713Z,100384.13
2022-11-07T08:55:33.409Z,100384.00
2022-11-07T08:58:01.087Z,100384.59
2022-11-07T09:00:28.023Z,100383.81
2022-11-07T09:03:30.836Z,100392.59
2022-11-07T09:05:40.923Z,100380.28
2022-11-07T09:08:07.548Z,100387.91
2022-11-07T09:10:33.927Z,100400.91
2022-11-07T09:13:00.290Z,100389.56
2022-11-07T09:15:26.763Z,100393.84
2022-11-07T09:17:53.398Z,100398.97
2022-11-07T09:20:19.824Z,100403.50
2022-11-07T09:22:46.267Z,100388.72
2022-11-07T09:25:13.064Z,100395.72
2022-11-07T09:27:39.518Z,100393.72
2022-11-07T09:30:06.426Z,100392.47
2022-11-07T09:32:45.017Z,100395.03
2022-11-07T09:35:12.867Z,100389.38
2022-11-07T09:37:40.226Z,100383.84
2022-11-07T09:40:23.618Z,100395.91
2022-11-07T09:43:08.226Z,100383.63
2022-11-07T09:45:43.980Z,100396.56
2022-11-07T09:48:19.741Z,100393.03
2022-11-07T09:50:49.088Z,100390.97
2022-11-07T09:53:28.321Z,100397.97
2022-11-07T09:56:00.850Z,100406.47
2022-11-07T09:58:34.671Z,100400.00
2022-11-07T10:01:05.738Z,100405.00
2022-11-07T10:03:37.929Z,100399.75
2022-11-07T10:06:34.016Z,100410.13
2022-11-07T10:09:18.551Z,100411.53
2022-11-07T10:12:08.557Z,100429.19
2022-11-07T10:15:08.582Z,100418.88
2022-11-07T10:17:54.482Z,100419.03
2022-11-07T10:20:33.087Z,100427.47
2022-11-07T10:23:33.446Z,100426.47
2022-11-07T10:26:08.041Z,100427.59
2022-11-07T10:28:44.025Z,100425.72
2022-11-07T10:31:12.900Z,100427.41
2022-11-07T10:34:04.467Z,100435.53
2022-11-07T10:36:32.765Z,100427.81
2022-11-07T10:39:01.558Z,100428.00
2022-11-07T10:41:31.543Z,100430.00
2022-11-07T10:44:02.440Z,100437.84
2022-11-07T10:46:38.479Z,100443.78
2022-11-07T10:49:26.164Z,100426.31
2022-11-07T10:51:53.737Z,100439.41
2022-11-07T10:54:25.891Z,100435.03
2022-11-07T10:57:19.696Z,100442.03
2022-11-07T10:59:51.891Z,100439.22
2022-11-07T11:02:25.691Z,100437.44
2022-11-07T11:04:57.850Z,100431.44
2022-11-07T11:07:36.461Z,100437.50
2022-11-07T11:10:04.212Z,100433.84
2022-11-07T11:12:34.749Z,100437.94
2022-11-07T11:15:11.714Z,100424.69
2022-11-07T11:17:38.496Z,100432.53
2022-11-07T11:20:06.706Z,100430.75
2022-11-07T11:22:41.979Z,100427.38
2022-11-07T11:25:11.312Z,100432.66
2022-11-07T11:27:39.043Z,100417.88
2022-11-07T11:30:15.246Z,100436.69
2022-11-07T11:33:17.431Z,100425.97
2022-11-07T11:35:57.149Z,100415.41
2022-11-07T11:38:52.986Z,100415.41
2022-11-07T11:41:34.639Z,100424.19
2022-11-07T11:44:18.239Z,100419.84
2022-11-07T11:47:14.098Z,100418.81
2022-11-07T11:49:47.487Z,100417.16
2022-11-07T11:52:21.198Z,100411.28
2022-11-07T11:54:50.039Z,100427.31
2022-11-07T11:57:47.333Z,100423.81
2022-11-07T12:00:18.391Z,100428.25
2022-11-07T12:03:03.468Z,100434.28
2022-11-07T12:05:49.782Z,100436.59
2022-11-07T12:08:31.073Z,100441.97
2022-11-07T12:11:06.172Z,100444.75
2022-11-07T12:13:32.540Z,100442.06
2022-11-07T12:16:26.522Z,100443.94
2022-11-07T12:19:00.922Z,100452.63
2022-11-07T12:21:37.208Z,100452.78
2022-11-07T12:24:38.073Z,100450.25
2022-11-07T12:27:10.431Z,100465.13
2022-11-07T12:30:10.391Z,100460.72
2022-11-07T12:32:54.604Z,100462.53
2022-11-07T12:35:30.065Z,100460.94
2022-11-07T12:38:14.386Z,100461.69
2022-11-07T12:40:40.638Z,100462.53
2022-11-07T12:43:34.564Z,100462.06
2022-11-07T12:46:09.586Z,100456.66
2022-11-07T12:48:54.750Z,100453.84
2022-11-07T12:51:46.811Z,100450.59
2022-11-07T12:54:38.487Z,100452.34
2022-11-07T12:57:14.790Z,100450.72
2022-11-07T12:59:48.353Z,100453.22
2022-11-07T13:02:39.501Z,100455.06
2022-11-07T13:05:15.117Z,100452.34
2022-11-07T13:08:04.465Z,100446.19
2022-11-07T13:10:49.263Z,100446.19
2022-11-07T13:13:23.604Z,100451.31
2022-11-07T13:16:14.153Z,100460.78
2022-11-07T13:18:36.463Z,100450.34
2022-11-07T13:21:05.899Z,100451.16
2022-11-07T13:23:32.592Z,100466.03
2022-11-07T13:26:03.975Z,100457.28
2022-11-07T13:28:43.077Z,100458.25
2022-11-07T13:31:38.707Z,100462.47
2022-11-07T13:34:32.183Z,100454.50
2022-11-07T13:37:03.988Z,100458.69
2022-11-07T13:39:31.078Z,100451.56
2022-11-07T13:41:59.420Z,100460.34
2022-11-07T13:44:29.035Z,100459.63
2022-11-07T13:47:02.817Z,100461.56
2022-11-07T13:49:46.306Z,100471.09
2022-11-07T13:52:41.972Z,100466.72
2022-11-07T13:55:23.524Z,100473.66
2022-11-07T13:57:56.232Z,100476.13
2022-11-07T14:00:22.817Z,100491.19
2022-11-07T14:02:51.508Z,100497.00
2022-11-07T14:05:26.940Z,100491.22
2022-11-07T14:08:27.167Z,100494.78
2022-11-07T14:10:54.297Z,100499.81
2022-11-07T14:13:41.252Z,100508.53
2022-11-07T14:16:19.491Z,100509.38
2022-11-07T14:18:51.750Z,100509.38
2022-11-07T14:21:25.426Z,100511.97
2022-11-07T14:23:52.211Z,100514.47
2022-11-07T14:26:29.331Z,100512.63
2022-11-07T14:28:57.677Z,100505.72
2022-11-07T14:31:35.627Z,100507.63
2022-11-07T14:34:15.368Z,100511.31
2022-11-07T14:36:56.493Z,100513.94
2022-11-07T14:39:25.613Z,100506.19
2022-11-07T14:41:54.353Z,100520.09
2022-11-07T14:44:36.377Z,100518.03
2022-11-07T14:47:18.762Z,100519.63
2022-11-07T14:49:47.999Z,100513.56
2022-11-07T14:52:34.564Z,100517.81
2022-11-07T14:55:45.513Z,100513.56
2022-11-07T14:58:12.588Z,100510.19
2022-11-07T15:00:39.671Z,100506.94
2022-11-07T15:03:06.189Z,100507.63
2022-11-07T15:05:41.808Z,100511.22
2022-11-07T15:08:28.130Z,100508.84
2022-11-07T15:11:21.358Z,100508.03
2022-11-07T15:13:48.541Z,100513.06
2022-11-07T15:16:18.496Z,100510.53
2022-11-07T15:18:47.376Z,100512.34
2022-11-07T15:21:36.672Z,100517.63
2022-11-07T15:24:40.916Z,100521.22
2022-11-07T15:27:13.144Z,100519.75
2022-11-07T15:29:48.573Z,100525.88
2022-11-07T15:32:20.601Z,100537.22
2022-11-07T15:35:08.013Z,100540.75
2022-11-07T15:37:36.716Z,100539.91
2022-11-07T15:40:15.030Z,100528.84
2022-11-07T15:42:41.598Z,100541.06
2022-11-07T15:45:08.494Z,100542.00
2022-11-07T15:47:34.957Z,100537.56
2022-11-07T15:50:01.317Z,100548.91
2022-11-07T15:52:27.627Z,100542.91
2022-11-07T15:54:53.916Z,100545.66
2022-11-07T15:57:20.554Z,100549.16
2022-11-07T15:59:46.900Z,100556.22
2022-11-07T16:02:16.524Z,100552.88
2022-11-07T16:04:43.713Z,100548.69
2022-11-07T16:07:18.534Z,100550.44
2022-11-07T16:09:48.180Z,100555.72
2022-11-07T16:12:17.514Z,100554.88
2022-11-07T16:14:44.823Z,100559.31
2022-11-07T16:17:19.234Z,100560.97
2022-11-07T16:19:45.581Z,100561.84
2022-11-07T16:22:13.389Z,100560.22
2022-11-07T16:24:39.755Z,100568.88
2022-11-07T16:27:06.257Z,100564.28
2022-11-07T16:29:33.181Z,100561.59
2022-11-07T16:31:59.473Z,100572.84
2022-11-07T16:34:25.777Z,100562.38
2022-11-07T16:36:52.118Z,100565.78
2022-11-07T16:39:20.891Z,100562.47
2022-11-07T16:41:48.039Z,100562.63
2022-11-07T16:44:14.442Z,100560.13
2022-11-07T16:46:41.606Z,100560.19
2022-11-07T16:49:34.265Z,100560.38
2022-11-07T16:52:00.598Z,100562.13
2022-11-07T16:54:26.897Z,100563.06
2022-11-07T16:56:53.404Z,100566.50
2022-11-07T16:59:22.397Z,100568.94
2022-11-07T17:01:50.217Z,100568.13
2022-11-07T17:04:16.897Z,100575.03
2022-11-07T17:06:47.339Z,100578.38
2022-11-07T17:09:24.556Z,100574.13
2022-11-07T17:11:50.953Z,100572.19
2022-11-07T17:14:17.472Z,100561.66
2022-11-07T17:16:48.146Z,100566.19
2022-11-07T17:19:15.395Z,100564.53
2022-11-07T17:21:46.181Z,100573.78
2022-11-07T17:24:12.730Z,100571.84
2022-11-07T17:26:39.022Z,100575.03
2022-11-07T17:29:07.331Z,100572.59
2022-11-07T17:31:33.716Z,100572.44
2022-11-07T17:34:00.042Z,100574.13
2022-11-07T17:36:36.698Z,100575.69
2022-11-07T17:39:07.998Z,100575.88
2022-11-07T17:41:34.342Z,100581.78
2022-11-07T17:44:00.766Z,100580.69
2022-11-07T17:46:30.780Z,100581.59
2022-11-07T17:49:02.445Z,100581.53
2022-11-07T17:51:28.844Z,100583.09
2022-11-07T17:53:56.486Z,100588.16
2022-11-07T17:56:25.858Z,100593.28
2022-11-07T17:59:00.854Z,100590.00
2022-11-07T18:01:34.145Z,100587.47
2022-11-07T18:04:01.698Z,100590.06
2022-11-07T18:06:28.640Z,100602.25
2022-11-07T18:08:57.311Z,100603.97
2022-11-07T18:11:26.497Z,100594.22
2022-11-07T18:13:54.505Z,100597.59
2022-11-07T18:16:23.861Z,100597.59
2022-11-07T18:18:50.652Z,100588.88
2022-11-07T18:21:17.623Z,100587.22
2022-11-07T18:23:44.482Z,100581.13
2022-11-07T18:26:13.557Z,100590.47
2022-11-07T18:28:40.728Z,100589.88
2022-11-07T18:31:16.439Z,100583.84
2022-11-07T18:33:43.447Z,100584.84
2022-11-07T18:36:16.972Z,100582.25
2022-11-07T18:38:44.592Z,100585.75
2022-11-07T18:41:14.333Z,100584.84
2022-11-07T18:43:40.821Z,100585.06
2022-11-07T18:46:14.376Z,100596.22
2022-11-07T18:48:41.948Z,100604.91
2022-11-07T18:51:11.320Z,100594.31
2022-11-07T18:53:38.392Z,100598.81
2022-11-07T18:56:07.086Z,100602.63
2022-11-07T18:58:36.039Z,100607.13
2022-11-07T19:01:12.540Z,100605.66
2022-11-07T19:03:40.839Z,100613.63
2022-11-07T19:06:08.974Z,100613.47
2022-11-07T19:08:38.057Z,100608.22
2022-11-07T19:11:08.933Z,100608.25
2022-11-07T19:13:37.303Z,100615.16
2022-11-07T19:16:05.743Z,100617.59
2022-11-07T19:18:32.381Z,100610.63
2022-11-07T19:20:58.795Z,100609.66
2022-11-07T19:23:25.133Z,100612.22
2022-11-07T19:25:51.681Z,100619.22
2022-11-07T19:28:17.990Z,100611.28
2022-11-07T19:30:44.576Z,100610.28
2022-11-07T19:33:11.165Z,100606.75
2022-11-07T19:35:39.578Z,100613.84
2022-11-07T19:38:08.965Z,100610.28
2022-11-07T19:40:38.776Z,100609.25
2022-11-07T19:43:05.514Z,100613.59
2022-11-07T19:45:31.947Z,100612.75
2022-11-07T19:47:58.222Z,100603.19
2022-11-07T19:50:24.506Z,100609.34
2022-11-07T19:52:50.875Z,100606.63
2022-11-07T19:55:17.804Z,100616.28
2022-11-07T19:57:44.079Z,100614.47
2022-11-07T20:00:11.700Z,100613.59
2022-11-07T20:02:44.166Z,100617.97
2022-11-07T20:05:11.179Z,100613.59
2022-11-07T20:07:39.274Z,100617.06
2022-11-07T20:10:08.527Z,100620.59
2022-11-07T20:12:34.811Z,100615.41
2022-11-07T20:15:01.116Z,100624.91
2022-11-07T20:17:27.393Z,100620.75
2022-11-07T20:19:53.691Z,100619.13
2022-11-07T20:22:20.012Z,100620.84
2022-11-07T20:24:46.286Z,100621.94
2022-11-07T20:27:13.496Z,100637.66
2022-11-07T20:29:39.843Z,100632.47
2022-11-07T20:32:06.142Z,100640.94
2022-11-07T20:34:32.515Z,100638.53
2022-11-07T20:36:58.796Z,100636.75
2022-11-07T20:39:25.122Z,100638.59
2022-11-07T20:41:51.395Z,100642.19
2022-11-07T20:44:17.779Z,100640.44
2022-11-07T20:46:45.339Z,100644.09
2022-11-07T20:49:13.911Z,100642.31
2022-11-07T20:51:41.112Z,100650.06
2022-11-07T20:54:08.944Z,100648.13
2022-11-07T20:56:35.299Z,100651.75
2022-11-07T20:59:01.629Z,100657.13
2022-11-07T21:01:37.299Z,100656.38
2022-11-07T21:04:10.362Z,100643.44
2022-11-07T21:06:37.136Z,100650.38
2022-11-07T21:09:05.082Z,100655.75
2022-11-07T21:11:31.561Z,100651.44
2022-11-07T21:13:57.922Z,100658.28
2022-11-07T21:16:25.841Z,100651.50
2022-11-07T21:18:53.498Z,100645.47
2022-11-07T21:21:26.886Z,100657.81
2022-11-07T21:23:54.468Z,100660.34
2022-11-07T21:26:26.922Z,100663.72
2022-11-07T21:28:54.405Z,100658.38
2022-11-07T21:31:26.923Z,100664.63
2022-11-07T21:33:53.293Z,100655.75
2022-11-07T21:36:23.379Z,100658.50
2022-11-07T21:38:50.043Z,100657.59
2022-11-07T21:41:16.982Z,100661.00
2022-11-07T21:43:43.902Z,100661.13
2022-11-07T21:46:15.892Z,100667.28
2022-11-07T21:48:43.037Z,100655.13
2022-11-07T21:51:21.386Z,100658.59
2022-11-07T21:53:48.517Z,100656.13
2022-11-07T21:56:17.673Z,100651.84
2022-11-07T21:58:44.572Z,100654.44
2022-11-07T22:01:11.168Z,100648.28
2022-11-07T22:04:04.610Z,100651.03
2022-11-07T22:06:23.846Z,100651.00
2022-11-07T22:08:53.882Z,100646.47
2022-11-07T22:11:20.538Z,100652.59
2022-11-07T22:13:47.009Z,100660.28
2022-11-07T22:16:16.951Z,100644.69
2022-11-07T22:18:43.726Z,100647.22
2022-11-07T22:21:12.714Z,100654.38
2022-11-07T22:23:39.897Z,100656.81
2022-11-07T22:26:10.322Z,100654.91
2022-11-07T22:28:38.525Z,100651.38
2022-11-07T22:31:13.312Z,100640.06
2022-11-07T22:33:39.583Z,100648.75
2022-11-07T22:36:08.244Z,100647.06
2022-11-07T22:38:35.948Z,100652.31
2022-11-07T22:41:04.873Z,100648.81
2022-11-07T22:43:31.219Z,100652.31
2022-11-07T22:46:02.410Z,100647.72
2022-11-07T22:48:29.329Z,100639.00
2022-11-07T22:51:07.263Z,100649.63
2022-11-07T22:53:34.296Z,100647.75
2022-11-07T22:56:12.791Z,100651.00
2022-11-07T22:58:39.898Z,100638.06
2022-11-07T23:01:13.311Z,100643.31
2022-11-07T23:03:39.598Z,100639.59
2022-11-07T23:06:05.908Z,100634.38
2022-11-07T23:08:36.035Z,100637.97
2022-11-07T23:11:43.471Z,100635.28
2022-11-07T23:14:00.221Z,100635.28
2022-11-07T23:16:32.531Z,100633.47
2022-11-07T23:19:01.735Z,100627.41
2022-11-07T23:21:28.787Z,100625.63
2022-11-07T23:23:57.427Z,100631.59
2022-11-07T23:26:25.416Z,100620.28
2022-11-07T23:28:52.562Z,100631.53
2022-11-07T23:31:19.212Z,100632.53
2022-11-07T23:33:45.655Z,100630.69
2022-11-07T23:36:14.376Z,100620.06
2022-11-07T23:38:41.650Z,100614.91
2022-11-07T23:41:10.512Z,100619.97
2022-11-07T23:43:36.854Z,100626.06
2022-11-07T23:46:21.762Z,100619.06
2022-11-07T23:49:11.899Z,100605.91
2022-11-07T23:51:40.739Z,100613.75
2022-11-07T23:54:25.629Z,100605.00
2022-11-07T23:56:52.079Z,100608.56
2022-11-07T23:59:37.029Z,100611.19
